Search for airport 
image banner adimage banner adimage banner ad
image banner ad

32CN - Pacific Bell-2300 Imperial Hwy

Located in El Segundo, United States

ICAO - 32CN, IATA -

Data provided by Airmate  

General information

Coordinates: N33°55'50" W118°22'57"
Elevation is 209 feet MSL.
Magnetic variation is 14° East
View others Airports in California

Operational data

Special qualification required
Current time UTC:
Current local time:
Weather at : KLAX - Los Angeles Intl ( 3 km )
METAR: KLAX 221253Z 22004KT 10SM SCT010 BKN150 16/13 A2993 RMK AO2 SLP134 SCT V BKN T01560133 $
TAF: KLAX 221259Z 2213/2318 VRB03KT P6SM SCT010 FM221700 27012KT P6SM SCT012 FM230400 25008KT P6SM SKC FM230800 24005KT P6SM BKN010 FM231200 VRB03KT P6SM OVC015
View NOTAMs / SUP AIP / TFR affecting this airport [VIEW]
Communications frequencies: [VIEW]

Runways:

Airport contact information

Address: El Segundo United States

Satellite view of 32CN